sensor_id;sensor_type;location;lat;lon;timestamp;P1;durP1;ratioP1;P2;durP2;ratioP2
7977;SDS011;4034;48.004;10.902;2022-08-03T06:19:35;3.25;;;3.00;;
7977;SDS011;4034;48.004;10.902;2022-08-03T06:22:01;2.57;;;2.47;;
7977;SDS011;4034;48.004;10.902;2022-08-03T06:24:27;2.67;;;2.50;;
7977;SDS011;4034;48.004;10.902;2022-08-03T06:26:52;2.60;;;2.50;;
7977;SDS011;4034;48.004;10.902;2022-08-03T06:29:19;2.73;;;2.50;;
7977;SDS011;4034;48.004;10.902;2022-08-03T06:31:45;2.50;;;2.30;;
7977;SDS011;4034;48.004;10.902;2022-08-03T06:34:11;2.73;;;2.57;;
7977;SDS011;4034;48.004;10.902;2022-08-03T06:36:37;4.17;;;2.60;;
7977;SDS011;4034;48.004;10.902;2022-08-03T06:39:03;2.20;;;2.07;;
7977;SDS011;4034;48.004;10.902;2022-08-03T06:41:29;2.03;;;1.93;;
7977;SDS011;4034;48.004;10.902;2022-08-03T06:43:55;2.23;;;1.90;;
7977;SDS011;4034;48.004;10.902;2022-08-03T06:46:21;2.30;;;2.10;;
7977;SDS011;4034;48.004;10.902;2022-08-03T06:48:47;2.00;;;1.80;;
7977;SDS011;4034;48.004;10.902;2022-08-03T06:51:13;2.53;;;1.90;;
7977;SDS011;4034;48.004;10.902;2022-08-03T06:53:39;1.90;;;1.80;;
7977;SDS011;4034;48.004;10.902;2022-08-03T06:56:06;2.10;;;2.00;;
7977;SDS011;4034;48.004;10.902;2022-08-03T06:58:32;1.97;;;1.90;;
7977;SDS011;4034;48.004;10.902;2022-08-03T07:00:58;1.60;;;1.60;;
7977;SDS011;4034;48.004;10.902;2022-08-03T07:03:24;2.10;;;2.00;;
7977;SDS011;4034;48.004;10.902;2022-08-03T07:05:50;2.13;;;1.93;;
7977;SDS011;4034;48.004;10.902;2022-08-03T07:08:16;2.53;;;2.10;;
7977;SDS011;4034;48.004;10.902;2022-08-03T07:10:43;1.70;;;1.70;;
7977;SDS011;4034;48.004;10.902;2022-08-03T07:13:09;1.90;;;1.80;;
7977;SDS011;4034;48.004;10.902;2022-08-03T07:15:36;1.97;;;1.83;;
7977;SDS011;4034;48.004;10.902;2022-08-03T07:18:02;1.27;;;1.27;;
7977;SDS011;4034;48.004;10.902;2022-08-03T07:20:28;2.17;;;1.77;;
7977;SDS011;4034;48.004;10.902;2022-08-03T07:22:54;1.50;;;1.50;;
7977;SDS011;4034;48.004;10.902;2022-08-03T07:25:20;1.63;;;1.53;;
7977;SDS011;4034;48.004;10.902;2022-08-03T07:27:46;1.57;;;1.57;;
7977;SDS011;4034;48.004;10.902;2022-08-03T07:30:13;1.30;;;1.30;;
7977;SDS011;4034;48.004;10.902;2022-08-03T07:32:40;1.40;;;1.40;;
7977;SDS011;4034;48.004;10.902;2022-08-03T07:35:06;1.97;;;1.60;;
7977;SDS011;4034;48.004;10.902;2022-08-03T07:37:32;2.30;;;1.50;;
7977;SDS011;4034;48.004;10.902;2022-08-03T07:39:59;1.50;;;1.50;;
7977;SDS011;4034;48.004;10.902;2022-08-03T07:42:26;1.70;;;1.60;;
7977;SDS011;4034;48.004;10.902;2022-08-03T07:44:52;1.20;;;1.20;;
7977;SDS011;4034;48.004;10.902;2022-08-03T07:47:25;1.30;;;1.30;;
7977;SDS011;4034;48.004;10.902;2022-08-03T07:49:52;1.60;;;1.50;;
7977;SDS011;4034;48.004;10.902;2022-08-03T07:52:18;1.50;;;1.50;;
7977;SDS011;4034;48.004;10.902;2022-08-03T07:55:03;1.70;;;1.50;;
7977;SDS011;4034;48.004;10.902;2022-08-03T07:57:30;1.73;;;1.63;;
7977;SDS011;4034;48.004;10.902;2022-08-03T07:59:56;1.40;;;1.40;;
7977;SDS011;4034;48.004;10.902;2022-08-03T08:02:22;1.50;;;1.50;;
7977;SDS011;4034;48.004;10.902;2022-08-03T08:04:48;1.20;;;1.20;;
7977;SDS011;4034;48.004;10.902;2022-08-03T08:07:14;1.77;;;1.30;;
7977;SDS011;4034;48.004;10.902;2022-08-03T08:09:40;1.30;;;1.30;;
7977;SDS011;4034;48.004;10.902;2022-08-03T08:12:06;1.57;;;1.47;;
7977;SDS011;4034;48.004;10.902;2022-08-03T08:14:33;1.43;;;1.43;;
7977;SDS011;4034;48.004;10.902;2022-08-03T08:17:00;1.33;;;1.33;;
7977;SDS011;4034;48.004;10.902;2022-08-03T08:19:26;5.13;;;1.30;;
7977;SDS011;4034;48.004;10.902;2022-08-03T08:21:52;1.33;;;1.33;;
7977;SDS011;4034;48.004;10.902;2022-08-03T08:24:18;1.60;;;1.10;;
7977;SDS011;4034;48.004;10.902;2022-08-03T08:26:44;1.53;;;1.40;;
7977;SDS011;4034;48.004;10.902;2022-08-03T08:29:10;1.27;;;1.27;;
7977;SDS011;4034;48.004;10.902;2022-08-03T08:31:36;1.27;;;1.27;;
7977;SDS011;4034;48.004;10.902;2022-08-03T08:34:02;1.60;;;1.20;;
7977;SDS011;4034;48.004;10.902;2022-08-03T08:36:30;1.10;;;1.10;;
7977;SDS011;4034;48.004;10.902;2022-08-03T08:38:56;1.03;;;1.03;;
7977;SDS011;4034;48.004;10.902;2022-08-03T08:41:22;0.90;;;0.90;;
7977;SDS011;4034;48.004;10.902;2022-08-03T08:43:48;2.63;;;1.20;;
7977;SDS011;4034;48.004;10.902;2022-08-03T08:46:14;2.58;;;1.13;;
7977;SDS011;4034;48.004;10.902;2022-08-03T08:48:41;2.70;;;0.77;;
7977;SDS011;4034;48.004;10.902;2022-08-03T08:51:08;1.02;;;1.02;;
7977;SDS011;4034;48.004;10.902;2022-08-03T08:53:36;1.20;;;1.13;;
7977;SDS011;4034;48.004;10.902;2022-08-03T08:56:02;0.88;;;0.88;;
7977;SDS011;4034;48.004;10.902;2022-08-03T08:58:33;1.03;;;1.00;;
7977;SDS011;4034;48.004;10.902;2022-08-03T09:00:59;0.90;;;0.90;;
7977;SDS011;4034;48.004;10.902;2022-08-03T09:03:25;1.00;;;1.00;;
7977;SDS011;4034;48.004;10.902;2022-08-03T09:05:51;1.10;;;1.10;;
7977;SDS011;4034;48.004;10.902;2022-08-03T09:08:17;0.90;;;0.90;;
7977;SDS011;4034;48.004;10.902;2022-08-03T09:10:43;1.40;;;1.20;;
7977;SDS011;4034;48.004;10.902;2022-08-03T09:13:10;1.13;;;1.08;;
7977;SDS011;4034;48.004;10.902;2022-08-03T09:15:36;1.10;;;1.10;;
7977;SDS011;4034;48.004;10.902;2022-08-03T09:18:03;0.93;;;0.93;;
7977;SDS011;4034;48.004;10.902;2022-08-03T09:20:30;2.50;;;1.15;;
7977;SDS011;4034;48.004;10.902;2022-08-03T09:22:58;0.90;;;0.90;;
7977;SDS011;4034;48.004;10.902;2022-08-03T09:25:28;0.93;;;0.93;;
7977;SDS011;4034;48.004;10.902;2022-08-03T09:27:54;0.77;;;0.77;;
7977;SDS011;4034;48.004;10.902;2022-08-03T09:30:20;1.70;;;1.00;;
7977;SDS011;4034;48.004;10.902;2022-08-03T09:32:46;1.10;;;1.10;;
7977;SDS011;4034;48.004;10.902;2022-08-03T09:35:12;1.90;;;1.13;;
7977;SDS011;4034;48.004;10.902;2022-08-03T09:37:39;0.85;;;0.85;;
7977;SDS011;4034;48.004;10.902;2022-08-03T09:40:05;1.00;;;1.00;;
7977;SDS011;4034;48.004;10.902;2022-08-03T09:42:31;1.17;;;1.08;;
7977;SDS011;4034;48.004;10.902;2022-08-03T09:45:04;1.10;;;1.10;;
7977;SDS011;4034;48.004;10.902;2022-08-03T09:47:31;0.93;;;0.93;;
7977;SDS011;4034;48.004;10.902;2022-08-03T09:49:58;0.90;;;0.90;;
7977;SDS011;4034;48.004;10.902;2022-08-03T09:54:58;0.80;;;0.80;;
7977;SDS011;4034;48.004;10.902;2022-08-03T09:57:25;1.17;;;1.17;;
7977;SDS011;4034;48.004;10.902;2022-08-03T09:59:53;1.00;;;1.00;;
7977;SDS011;4034;48.004;10.902;2022-08-03T10:02:25;1.63;;;1.13;;
7977;SDS011;4034;48.004;10.902;2022-08-03T10:04:52;1.10;;;1.10;;
7977;SDS011;4034;48.004;10.902;2022-08-03T10:07:20;0.80;;;0.80;;
7977;SDS011;4034;48.004;10.902;2022-08-03T10:09:53;1.17;;;1.08;;
7977;SDS011;4034;48.004;10.902;2022-08-03T10:12:19;1.30;;;1.20;;
7977;SDS011;4034;48.004;10.902;2022-08-03T10:14:45;1.85;;;0.93;;
7977;SDS011;4034;48.004;10.902;2022-08-03T10:17:12;0.82;;;0.82;;
7977;SDS011;4034;48.004;10.902;2022-08-03T10:19:38;0.80;;;0.80;;
7977;SDS011;4034;48.004;10.902;2022-08-03T10:22:12;0.90;;;0.82;;
7977;SDS011;4034;48.004;10.902;2022-08-03T10:24:39;0.98;;;0.98;;
7977;SDS011;4034;48.004;10.902;2022-08-03T10:27:10;0.73;;;0.73;;
7977;SDS011;4034;48.004;10.902;2022-08-03T10:29:38;1.10;;;0.90;;
7977;SDS011;4034;48.004;10.902;2022-08-03T10:32:09;1.38;;;1.10;;
7977;SDS011;4034;48.004;10.902;2022-08-03T10:34:39;0.95;;;0.95;;
7977;SDS011;4034;48.004;10.902;2022-08-03T10:37:08;1.10;;;1.00;;
7977;SDS011;4034;48.004;10.902;2022-08-03T10:39:35;1.98;;;1.15;;
7977;SDS011;4034;48.004;10.902;2022-08-03T10:42:01;1.20;;;1.20;;
7977;SDS011;4034;48.004;10.902;2022-08-03T10:44:31;1.05;;;1.00;;
7977;SDS011;4034;48.004;10.902;2022-08-03T10:46:57;1.10;;;1.10;;
7977;SDS011;4034;48.004;10.902;2022-08-03T10:49:24;1.45;;;1.35;;
7977;SDS011;4034;48.004;10.902;2022-08-03T10:51:50;1.00;;;1.00;;
7977;SDS011;4034;48.004;10.902;2022-08-03T18:16:00;6.73;;;1.57;;
7977;SDS011;4034;48.004;10.902;2022-08-03T18:18:29;22.13;;;3.27;;
7977;SDS011;4034;48.004;10.902;2022-08-03T18:20:56;7.23;;;2.40;;
7977;SDS011;4034;48.004;10.902;2022-08-03T18:23:22;15.70;;;2.20;;
7977;SDS011;4034;48.004;10.902;2022-08-03T18:25:48;20.43;;;3.27;;
7977;SDS011;4034;48.004;10.902;2022-08-03T18:28:15;38.83;;;3.90;;
7977;SDS011;4034;48.004;10.902;2022-08-03T18:30:41;34.80;;;3.57;;
7977;SDS011;4034;48.004;10.902;2022-08-03T18:33:08;22.37;;;2.53;;
7977;SDS011;4034;48.004;10.902;2022-08-03T18:35:35;16.97;;;2.63;;
7977;SDS011;4034;48.004;10.902;2022-08-03T18:38:02;28.50;;;3.30;;
7977;SDS011;4034;48.004;10.902;2022-08-03T18:40:28;19.33;;;2.47;;
7977;SDS011;4034;48.004;10.902;2022-08-03T18:42:54;7.87;;;2.03;;
7977;SDS011;4034;48.004;10.902;2022-08-03T18:45:20;13.70;;;2.47;;
7977;SDS011;4034;48.004;10.902;2022-08-03T18:47:52;23.60;;;3.00;;
7977;SDS011;4034;48.004;10.902;2022-08-03T18:55:19;24.60;;;3.33;;
7977;SDS011;4034;48.004;10.902;2022-08-03T18:57:49;27.07;;;2.70;;
7977;SDS011;4034;48.004;10.902;2022-08-03T19:00:17;11.83;;;2.43;;
7977;SDS011;4034;48.004;10.902;2022-08-03T19:05:14;22.30;;;3.30;;
7977;SDS011;4034;48.004;10.902;2022-08-03T19:07:41;46.37;;;5.20;;
7977;SDS011;4034;48.004;10.902;2022-08-03T19:10:12;116.20;;;8.70;;
7977;SDS011;4034;48.004;10.902;2022-08-03T19:15:09;34.90;;;5.50;;
7977;SDS011;4034;48.004;10.902;2022-08-03T19:17:40;46.97;;;5.63;;
7977;SDS011;4034;48.004;10.902;2022-08-03T19:20:07;46.73;;;4.60;;
7977;SDS011;4034;48.004;10.902;2022-08-03T19:22:34;60.80;;;6.13;;
7977;SDS011;4034;48.004;10.902;2022-08-03T19:25:00;42.63;;;4.10;;
7977;SDS011;4034;48.004;10.902;2022-08-03T19:27:27;26.00;;;3.60;;
7977;SDS011;4034;48.004;10.902;2022-08-03T19:29:55;10.70;;;2.93;;
7977;SDS011;4034;48.004;10.902;2022-08-03T19:32:21;32.20;;;4.10;;
7977;SDS011;4034;48.004;10.902;2022-08-03T19:34:49;13.43;;;2.50;;
7977;SDS011;4034;48.004;10.902;2022-08-03T19:37:15;12.03;;;3.07;;
7977;SDS011;4034;48.004;10.902;2022-08-03T19:39:42;12.50;;;2.57;;
7977;SDS011;4034;48.004;10.902;2022-08-03T19:42:09;26.20;;;3.57;;
7977;SDS011;4034;48.004;10.902;2022-08-03T19:44:41;17.00;;;3.10;;
7977;SDS011;4034;48.004;10.902;2022-08-03T19:49:52;16.13;;;2.87;;
7977;SDS011;4034;48.004;10.902;2022-08-03T19:52:22;9.50;;;2.50;;
7977;SDS011;4034;48.004;10.902;2022-08-03T19:54:50;3.90;;;1.80;;
7977;SDS011;4034;48.004;10.902;2022-08-03T19:57:17;1.90;;;1.70;;
7977;SDS011;4034;48.004;10.902;2022-08-03T19:59:44;4.00;;;1.77;;
7977;SDS011;4034;48.004;10.902;2022-08-03T20:02:10;1.70;;;1.60;;
7977;SDS011;4034;48.004;10.902;2022-08-03T20:04:36;3.37;;;1.80;;
7977;SDS011;4034;48.004;10.902;2022-08-03T20:07:02;2.83;;;1.60;;
7977;SDS011;4034;48.004;10.902;2022-08-03T20:09:29;3.03;;;1.40;;
7977;SDS011;4034;48.004;10.902;2022-08-03T20:11:55;2.10;;;1.90;;
7977;SDS011;4034;48.004;10.902;2022-08-03T20:14:22;2.17;;;1.70;;
7977;SDS011;4034;48.004;10.902;2022-08-03T20:16:49;4.63;;;2.07;;
7977;SDS011;4034;48.004;10.902;2022-08-03T20:19:15;4.53;;;1.93;;
7977;SDS011;4034;48.004;10.902;2022-08-03T20:21:42;3.33;;;1.90;;
7977;SDS011;4034;48.004;10.902;2022-08-03T20:24:10;8.43;;;1.93;;
7977;SDS011;4034;48.004;10.902;2022-08-03T20:26:37;1.63;;;1.40;;
7977;SDS011;4034;48.004;10.902;2022-08-03T20:29:04;2.45;;;1.90;;
7977;SDS011;4034;48.004;10.902;2022-08-03T20:31:33;8.25;;;2.15;;
7977;SDS011;4034;48.004;10.902;2022-08-03T20:33:59;5.00;;;1.90;;
7977;SDS011;4034;48.004;10.902;2022-08-03T20:48:35;2.70;;;1.90;;
7977;SDS011;4034;48.004;10.902;2022-08-03T20:53:28;5.23;;;2.17;;
7977;SDS011;4034;48.004;10.902;2022-08-03T20:55:55;4.90;;;1.90;;
7977;SDS011;4034;48.004;10.902;2022-08-03T20:58:21;2.60;;;1.80;;
7977;SDS011;4034;48.004;10.902;2022-08-03T21:00:47;4.77;;;1.87;;
7977;SDS011;4034;48.004;10.902;2022-08-03T21:03:13;9.20;;;2.20;;
7977;SDS011;4034;48.004;10.902;2022-08-03T21:05:40;2.00;;;1.70;;
7977;SDS011;4034;48.004;10.902;2022-08-03T21:08:07;2.90;;;2.00;;
7977;SDS011;4034;48.004;10.902;2022-08-03T21:10:37;2.35;;;1.80;;
7977;SDS011;4034;48.004;10.902;2022-08-03T21:13:25;7.37;;;2.17;;
7977;SDS011;4034;48.004;10.902;2022-08-03T21:15:54;2.93;;;1.43;;
7977;SDS011;4034;48.004;10.902;2022-08-03T21:18:21;3.67;;;1.50;;
7977;SDS011;4034;48.004;10.902;2022-08-03T21:20:48;1.73;;;1.63;;
7977;SDS011;4034;48.004;10.902;2022-08-03T21:25:41;2.55;;;1.80;;
7977;SDS011;4034;48.004;10.902;2022-08-03T21:33:00;4.00;;;1.70;;
7977;SDS011;4034;48.004;10.902;2022-08-03T21:37:52;3.35;;;1.50;;
7977;SDS011;4034;48.004;10.902;2022-08-03T21:40:38;2.10;;;1.97;;
7977;SDS011;4034;48.004;10.902;2022-08-03T21:43:04;4.07;;;2.00;;
7977;SDS011;4034;48.004;10.902;2022-08-03T21:45:30;2.50;;;2.00;;
7977;SDS011;4034;48.004;10.902;2022-08-03T21:47:59;2.20;;;1.77;;
7977;SDS011;4034;48.004;10.902;2022-08-03T21:50:26;1.30;;;1.30;;
7977;SDS011;4034;48.004;10.902;2022-08-03T21:52:55;2.53;;;2.27;;
7977;SDS011;4034;48.004;10.902;2022-08-03T21:55:21;5.37;;;1.90;;
7977;SDS011;4034;48.004;10.902;2022-08-03T21:57:51;1.30;;;1.30;;
7977;SDS011;4034;48.004;10.902;2022-08-03T22:00:18;2.03;;;1.70;;
7977;SDS011;4034;48.004;10.902;2022-08-03T22:02:52;8.13;;;2.10;;
7977;SDS011;4034;48.004;10.902;2022-08-03T22:05:19;3.90;;;1.77;;
7977;SDS011;4034;48.004;10.902;2022-08-03T22:07:45;3.10;;;1.97;;
7977;SDS011;4034;48.004;10.902;2022-08-03T22:10:11;1.90;;;1.80;;
7977;SDS011;4034;48.004;10.902;2022-08-03T22:12:37;1.60;;;1.60;;
7977;SDS011;4034;48.004;10.902;2022-08-03T22:15:04;3.80;;;1.50;;
7977;SDS011;4034;48.004;10.902;2022-08-03T22:17:32;3.40;;;2.00;;
7977;SDS011;4034;48.004;10.902;2022-08-03T22:19:58;1.77;;;1.67;;
7977;SDS011;4034;48.004;10.902;2022-08-03T22:22:25;2.25;;;1.90;;
7977;SDS011;4034;48.004;10.902;2022-08-03T22:24:55;2.45;;;1.85;;
7977;SDS011;4034;48.004;10.902;2022-08-03T22:27:22;4.20;;;2.00;;
7977;SDS011;4034;48.004;10.902;2022-08-03T22:29:58;3.20;;;1.70;;
7977;SDS011;4034;48.004;10.902;2022-08-03T22:49:26;2.00;;;1.90;;
7977;SDS011;4034;48.004;10.902;2022-08-03T22:51:53;1.75;;;1.65;;
7977;SDS011;4034;48.004;10.902;2022-08-03T22:56:45;2.00;;;1.90;;
7977;SDS011;4034;48.004;10.902;2022-08-03T22:59:11;1.63;;;1.50;;
7977;SDS011;4034;48.004;10.902;2022-08-03T23:01:37;3.60;;;1.77;;
7977;SDS011;4034;48.004;10.902;2022-08-03T23:04:04;1.90;;;1.80;;
7977;SDS011;4034;48.004;10.902;2022-08-03T23:06:37;3.87;;;1.67;;
7977;SDS011;4034;48.004;10.902;2022-08-03T23:09:05;1.90;;;1.80;;
7977;SDS011;4034;48.004;10.902;2022-08-03T23:16:22;1.90;;;1.80;;
7977;SDS011;4034;48.004;10.902;2022-08-03T23:21:14;3.05;;;2.00;;
7977;SDS011;4034;48.004;10.902;2022-08-03T23:26:10;2.90;;;1.90;;
7977;SDS011;4034;48.004;10.902;2022-08-03T23:31:02;2.70;;;2.00;;
7977;SDS011;4034;48.004;10.902;2022-08-03T23:35:55;1.70;;;1.70;;
